createdAt,value
2018-06-20T00:00:45.879Z,4.00
2018-06-20T00:03:15.854Z,3.93
2018-06-20T00:05:44.504Z,4.67
2018-06-20T00:08:13.140Z,4.87
2018-06-20T00:10:41.801Z,3.73
2018-06-20T00:13:10.473Z,4.03
2018-06-20T00:15:39.103Z,3.67
2018-06-20T00:18:07.822Z,4.37
2018-06-20T00:20:36.430Z,5.87
2018-06-20T00:23:05.063Z,3.90
2018-06-20T00:25:33.752Z,3.53
2018-06-20T00:28:02.463Z,4.10
2018-06-20T00:30:31.127Z,4.17
2018-06-20T00:32:59.821Z,4.03
2018-06-20T00:35:28.527Z,4.53
2018-06-20T00:37:57.195Z,4.83
2018-06-20T00:40:25.875Z,4.10
2018-06-20T00:42:54.783Z,4.57
2018-06-20T00:45:23.482Z,4.80
2018-06-20T00:47:52.169Z,4.60
2018-06-20T00:50:20.852Z,4.70
2018-06-20T00:52:49.536Z,4.40
2018-06-20T00:55:28.363Z,4.00
2018-06-20T00:57:57.011Z,5.10
2018-06-20T01:00:25.707Z,5.70
2018-06-20T01:02:54.279Z,4.60
2018-06-20T01:05:22.949Z,5.47
2018-06-20T01:07:51.587Z,5.50
2018-06-20T01:10:20.271Z,4.70
2018-06-20T01:12:48.946Z,4.90
2018-06-20T01:15:17.635Z,4.90
2018-06-20T01:17:46.509Z,5.30
2018-06-20T01:20:15.256Z,4.23
2018-06-20T01:22:43.916Z,4.90
2018-06-20T01:25:12.630Z,4.73
2018-06-20T01:27:41.344Z,4.80
2018-06-20T01:30:10.056Z,4.90
2018-06-20T01:32:38.755Z,5.30
2018-06-20T01:35:07.451Z,4.60
2018-06-20T01:37:36.183Z,5.00
2018-06-20T01:40:04.853Z,5.30
2018-06-20T01:42:33.516Z,5.50
2018-06-20T01:45:02.224Z,5.03
2018-06-20T01:47:30.927Z,6.00
2018-06-20T01:49:59.615Z,6.50
2018-06-20T01:52:28.304Z,5.73
2018-06-20T01:54:56.997Z,5.83
2018-06-20T01:57:25.635Z,5.07
2018-06-20T01:59:54.413Z,4.60
2018-06-20T02:02:23.109Z,5.40
2018-06-20T02:04:51.787Z,5.10
2018-06-20T02:07:20.539Z,5.33
2018-06-20T02:09:49.241Z,5.73
2018-06-20T02:12:18.086Z,5.37
2018-06-20T02:14:46.784Z,5.80
2018-06-20T02:17:15.454Z,6.57
2018-06-20T02:19:44.122Z,5.27
2018-06-20T02:22:12.847Z,5.50
2018-06-20T02:24:42.211Z,5.87
2018-06-20T02:27:10.914Z,5.03
2018-06-20T02:29:39.580Z,7.53
2018-06-20T02:32:08.268Z,5.47
2018-06-20T02:34:36.947Z,6.03
2018-06-20T02:37:06.380Z,4.77
2018-06-20T02:39:35.268Z,5.40
2018-06-20T02:42:03.982Z,6.10
2018-06-20T02:44:32.631Z,5.47
2018-06-20T02:47:01.287Z,5.43
2018-06-20T02:49:29.976Z,5.73
2018-06-20T02:51:58.649Z,6.63
2018-06-20T02:54:27.941Z,6.83
2018-06-20T02:56:56.636Z,5.90
2018-06-20T02:59:25.280Z,6.30
2018-06-20T03:01:53.960Z,5.53
2018-06-20T03:04:22.632Z,5.80
2018-06-20T03:06:51.371Z,5.97
2018-06-20T03:09:25.567Z,6.43
2018-06-20T03:11:54.263Z,5.83
2018-06-20T03:14:23.819Z,5.77
2018-06-20T03:16:52.489Z,6.60
2018-06-20T03:19:21.151Z,5.90
2018-06-20T03:21:49.853Z,6.77
2018-06-20T03:24:18.675Z,6.00
2018-06-20T03:26:47.327Z,6.17
2018-06-20T03:29:15.989Z,7.00
2018-06-20T03:31:44.631Z,6.27
2018-06-20T03:34:13.391Z,6.13
2018-06-20T03:36:42.091Z,6.60
2018-06-20T03:39:11.195Z,7.00
2018-06-20T03:41:40.296Z,6.87
2018-06-20T03:44:08.999Z,7.47
2018-06-20T03:46:37.647Z,7.27
2018-06-20T03:49:06.382Z,7.83
2018-06-20T03:51:35.145Z,7.23
2018-06-20T03:54:03.822Z,7.53
2018-06-20T03:56:32.478Z,7.70
2018-06-20T03:59:01.179Z,8.23
2018-06-20T04:01:29.895Z,8.60
2018-06-20T04:03:58.576Z,8.17
2018-06-20T04:06:27.309Z,8.53
2018-06-20T04:08:56.023Z,8.03
2018-06-20T04:11:24.739Z,9.00
2018-06-20T04:13:53.476Z,8.03
2018-06-20T04:16:22.169Z,7.60
2018-06-20T04:18:50.869Z,7.77
2018-06-20T04:21:19.547Z,8.13
2018-06-20T04:23:48.254Z,7.63
2018-06-20T04:26:16.873Z,8.27
2018-06-20T04:28:45.626Z,7.40
2018-06-20T04:31:14.292Z,8.30
2018-06-20T04:33:42.967Z,8.70
2018-06-20T04:36:11.715Z,7.90
2018-06-20T04:38:40.425Z,8.43
2018-06-20T04:41:09.074Z,8.20
2018-06-20T04:43:37.962Z,8.30
2018-06-20T04:46:06.859Z,8.00
2018-06-20T04:48:36.255Z,8.40
2018-06-20T04:51:04.950Z,8.43
2018-06-20T04:53:33.635Z,8.63
2018-06-20T04:56:02.911Z,7.83
2018-06-20T04:58:31.636Z,10.10
2018-06-20T05:01:00.344Z,9.20
2018-06-20T05:03:28.991Z,7.63
2018-06-20T05:05:57.647Z,8.03
2018-06-20T05:08:26.348Z,7.23
2018-06-20T05:10:55.047Z,7.83
2018-06-20T05:13:23.703Z,6.60
2018-06-20T05:15:52.884Z,6.87
2018-06-20T05:18:21.517Z,7.03
2018-06-20T05:20:50.304Z,7.53
2018-06-20T05:23:19.014Z,7.23
2018-06-20T05:25:47.707Z,6.90
2018-06-20T05:28:16.396Z,6.90
2018-06-20T05:30:48.855Z,7.30
2018-06-20T05:33:17.849Z,5.20
2018-06-20T05:35:46.742Z,6.07
2018-06-20T05:38:15.852Z,5.87
2018-06-20T05:40:44.948Z,5.70
2018-06-20T05:43:13.680Z,5.90
2018-06-20T05:45:42.356Z,5.83
2018-06-20T05:48:11.031Z,5.50
2018-06-20T05:50:39.698Z,6.30
2018-06-20T05:53:08.407Z,5.80
2018-06-20T05:55:37.051Z,6.70
2018-06-20T05:58:05.751Z,5.80
2018-06-20T06:00:34.467Z,5.90
2018-06-20T06:03:03.112Z,5.73
2018-06-20T06:05:31.896Z,5.67
2018-06-20T06:08:06.560Z,7.50
2018-06-20T06:10:35.295Z,5.80
2018-06-20T06:13:03.975Z,6.87
2018-06-20T06:15:32.663Z,7.60
2018-06-20T06:18:01.350Z,6.30
2018-06-20T06:20:30.027Z,5.53
2018-06-20T06:22:58.868Z,6.70
2018-06-20T06:25:27.539Z,5.57
2018-06-20T06:27:56.204Z,5.70
2018-06-20T06:30:25.689Z,5.50
2018-06-20T06:32:54.372Z,6.70
2018-06-20T06:35:23.093Z,6.10
2018-06-20T06:37:51.801Z,6.00
2018-06-20T06:40:20.634Z,6.67
2018-06-20T06:42:49.342Z,6.60
2018-06-20T06:45:18.068Z,7.17
2018-06-20T06:47:46.723Z,6.70
2018-06-20T06:50:15.518Z,6.67
2018-06-20T06:52:44.190Z,6.53
2018-06-20T06:55:12.913Z,7.47
2018-06-20T06:58:45.487Z,7.73
2018-06-20T07:01:14.186Z,6.60
2018-06-20T07:03:43.066Z,6.67
2018-06-20T07:06:11.744Z,6.73
2018-06-20T07:08:40.575Z,6.20
2018-06-20T07:11:09.431Z,6.53
2018-06-20T07:13:38.075Z,6.30
2018-06-20T07:16:06.746Z,6.60
2018-06-20T07:18:35.427Z,6.50
2018-06-20T07:21:04.122Z,8.17
2018-06-20T07:23:32.796Z,6.20
2018-06-20T07:26:01.455Z,8.27
2018-06-20T07:28:30.362Z,7.23
2018-06-20T07:30:59.121Z,6.40
2018-06-20T07:33:27.811Z,7.13
2018-06-20T07:35:56.632Z,6.70
2018-06-20T07:38:25.127Z,8.17
2018-06-20T07:40:53.828Z,6.30
2018-06-20T07:43:22.585Z,7.40
2018-06-20T07:45:51.324Z,7.90
2018-06-20T07:48:19.995Z,6.83
2018-06-20T07:50:48.799Z,7.37
2018-06-20T07:53:17.431Z,7.13
2018-06-20T07:55:46.148Z,7.43
2018-06-20T07:58:20.088Z,6.00
2018-06-20T08:00:54.115Z,5.90
2018-06-20T08:03:28.122Z,6.30
2018-06-20T08:06:02.663Z,6.23
2018-06-20T08:08:36.651Z,7.83
2018-06-20T08:11:10.615Z,6.60
2018-06-20T08:13:44.644Z,6.77
2018-06-20T08:16:18.843Z,6.43
2018-06-20T08:18:52.865Z,5.40
2018-06-20T08:21:21.514Z,6.27
2018-06-20T08:23:50.196Z,6.83
2018-06-20T08:26:19.413Z,7.47
2018-06-20T08:28:48.098Z,7.63
2018-06-20T08:31:16.813Z,6.27
2018-06-20T08:33:45.502Z,6.60
2018-06-20T08:36:14.259Z,5.50
2018-06-20T08:38:42.936Z,5.93
2018-06-20T08:41:11.658Z,6.10
2018-06-20T08:43:40.320Z,6.40
2018-06-20T08:46:08.959Z,5.97
2018-06-20T08:48:37.619Z,5.10
2018-06-20T08:51:06.690Z,5.00
2018-06-20T08:53:35.338Z,4.37
2018-06-20T08:56:04.018Z,4.67
2018-06-20T08:58:32.658Z,4.40
2018-06-20T09:01:02.585Z,4.20
2018-06-20T09:03:31.236Z,3.90
2018-06-20T09:06:05.375Z,3.60
2018-06-20T09:08:39.306Z,3.60
2018-06-20T09:11:13.267Z,3.13
2018-06-20T09:13:47.277Z,3.53
2018-06-20T09:18:29.057Z,3.87
2018-06-20T09:20:57.719Z,3.40
2018-06-20T09:23:26.447Z,3.67
2018-06-20T09:25:55.168Z,4.50
2018-06-20T09:28:23.895Z,4.10
2018-06-20T09:30:52.623Z,3.77
2018-06-20T09:33:21.327Z,3.97
2018-06-20T09:35:50.113Z,3.70
2018-06-20T09:38:18.777Z,4.07
2018-06-20T09:40:47.451Z,3.57
2018-06-20T09:43:16.135Z,3.80
2018-06-20T09:45:44.891Z,4.13
2018-06-20T09:48:13.769Z,4.03
2018-06-20T09:50:48.336Z,4.03
2018-06-20T09:53:17.045Z,4.90
2018-06-20T09:55:45.831Z,4.27
2018-06-20T09:58:15.610Z,4.80
2018-06-20T10:00:50.121Z,3.70
2018-06-20T10:03:24.166Z,4.20
2018-06-20T10:05:58.423Z,3.50
2018-06-20T10:08:32.484Z,4.03
2018-06-20T10:11:06.589Z,3.77
2018-06-20T10:13:40.718Z,3.13
2018-06-20T10:16:09.431Z,3.87
2018-06-20T10:18:38.196Z,3.60
2018-06-20T10:21:06.934Z,3.67
2018-06-20T10:23:35.637Z,3.30
2018-06-20T10:26:04.287Z,4.27
2018-06-20T10:28:33.163Z,3.13
2018-06-20T10:31:02.003Z,3.73
2018-06-20T10:33:30.705Z,3.17
2018-06-20T10:35:59.588Z,3.00
2018-06-20T10:38:28.341Z,4.10
2018-06-20T10:40:57.006Z,4.00
2018-06-20T10:43:25.995Z,4.10
2018-06-20T10:45:59.919Z,4.77
2018-06-20T10:48:28.598Z,3.77
2018-06-20T10:50:57.266Z,4.10
2018-06-20T10:53:25.988Z,3.53
2018-06-20T10:55:54.671Z,3.37
2018-06-20T10:58:28.631Z,3.20
2018-06-20T11:02:03.951Z,3.30
2018-06-20T11:04:37.960Z,3.03
2018-06-20T11:07:12.056Z,3.70
2018-06-20T11:09:46.525Z,3.13
2018-06-20T11:12:20.457Z,4.80
2018-06-20T11:14:49.120Z,4.40
2018-06-20T11:17:17.863Z,4.00
2018-06-20T11:19:46.503Z,4.27
2018-06-20T11:22:15.433Z,4.33
2018-06-20T11:24:44.103Z,3.97
2018-06-20T11:27:12.827Z,4.30
2018-06-20T11:29:41.548Z,4.40
2018-06-20T11:32:10.248Z,4.17
2018-06-20T11:34:38.952Z,3.80
2018-06-20T11:37:07.618Z,5.00
2018-06-20T11:39:36.378Z,5.10
2018-06-20T11:42:05.064Z,4.67
2018-06-20T11:44:33.728Z,5.93
2018-06-20T11:47:07.756Z,4.47
2018-06-20T11:49:36.415Z,4.80
2018-06-20T11:52:09.292Z,5.00
2018-06-20T11:54:37.978Z,4.53
2018-06-20T11:57:06.739Z,4.80
2018-06-20T11:59:40.849Z,4.63
2018-06-20T12:02:15.008Z,5.20
2018-06-20T12:04:49.064Z,4.80
2018-06-20T12:07:23.322Z,5.83
2018-06-20T12:09:57.304Z,6.07
2018-06-20T12:12:31.375Z,5.50
2018-06-20T12:15:05.636Z,6.30
2018-06-20T12:17:39.887Z,5.07
2018-06-20T12:20:13.859Z,5.73
2018-06-20T12:22:47.946Z,5.83
2018-06-20T12:25:21.911Z,6.07
2018-06-20T12:27:55.941Z,6.10
2018-06-20T12:30:29.932Z,7.00
2018-06-20T12:33:04.302Z,7.90
2018-06-20T12:35:38.364Z,6.20
2018-06-20T12:38:12.499Z,6.83
2018-06-20T12:40:46.613Z,5.97
2018-06-20T12:43:20.622Z,6.50
2018-06-20T12:45:53.544Z,7.80
2018-06-20T12:48:22.198Z,6.40
2018-06-20T12:50:50.858Z,7.97
2018-06-20T12:53:19.565Z,7.80
2018-06-20T12:55:48.377Z,6.73
2018-06-20T12:58:17.120Z,6.73
2018-06-20T13:00:45.800Z,6.17
2018-06-20T13:03:14.527Z,5.83
2018-06-20T13:05:43.345Z,6.30
2018-06-20T13:08:12.093Z,6.50
2018-06-20T13:10:40.768Z,8.53
2018-06-20T13:13:09.428Z,6.63
2018-06-20T13:15:38.043Z,6.80
2018-06-20T13:18:06.739Z,6.80
2018-06-20T13:20:35.469Z,7.57
2018-06-20T13:23:04.197Z,6.60
2018-06-20T13:25:34.340Z,6.80
2018-06-20T13:28:03.025Z,8.40
2018-06-20T13:30:31.843Z,7.33
2018-06-20T13:33:05.869Z,7.53
2018-06-20T13:35:40.041Z,8.53
2018-06-20T13:38:14.288Z,7.13
2018-06-20T13:40:48.465Z,7.53
2018-06-20T13:43:22.640Z,10.30
2018-06-20T13:45:56.624Z,7.70
2018-06-20T13:48:31.094Z,7.80
2018-06-20T13:50:59.853Z,8.10
2018-06-20T13:53:29.393Z,7.03
2018-06-20T13:55:58.055Z,8.80
2018-06-20T13:58:27.252Z,8.70
2018-06-20T14:00:55.988Z,8.50
2018-06-20T14:03:25.491Z,8.60
2018-06-20T14:05:56.412Z,8.00
2018-06-20T14:08:25.160Z,8.60
2018-06-20T14:10:53.872Z,7.83
2018-06-20T14:13:22.583Z,8.50
2018-06-20T14:15:51.262Z,7.43
2018-06-20T14:18:19.943Z,8.97
2018-06-20T14:20:54.169Z,9.27
2018-06-20T14:23:22.899Z,8.33
2018-06-20T14:25:51.663Z,7.77
2018-06-20T14:28:20.477Z,7.13
2018-06-20T14:30:54.582Z,7.40
2018-06-20T14:33:29.017Z,8.10
2018-06-20T14:36:02.998Z,7.70
2018-06-20T14:38:37.145Z,7.47
2018-06-20T14:41:11.077Z,7.53
2018-06-20T14:43:45.088Z,7.67
2018-06-20T14:46:15.278Z,7.80
2018-06-20T14:48:44.184Z,7.30
2018-06-20T14:51:12.867Z,7.17
2018-06-20T14:53:41.860Z,7.60
2018-06-20T14:56:10.527Z,9.07
2018-06-20T14:58:39.483Z,8.73
2018-06-20T15:01:08.489Z,8.23
2018-06-20T15:03:37.117Z,9.33
2018-06-20T15:06:05.903Z,9.13
2018-06-20T15:08:34.660Z,8.60
2018-06-20T15:11:03.330Z,8.90
2018-06-20T15:13:32.047Z,8.80
2018-06-20T15:16:06.245Z,7.70
2018-06-20T15:18:34.970Z,9.27
2018-06-20T15:21:03.668Z,8.80
2018-06-20T15:23:32.387Z,8.37
2018-06-20T15:26:06.479Z,10.70
2018-06-20T15:28:40.440Z,8.97
2018-06-20T15:31:14.443Z,9.33
2018-06-20T15:33:48.916Z,9.40
2018-06-20T15:36:22.899Z,9.10
2018-06-20T15:38:51.640Z,12.33
2018-06-20T15:41:20.347Z,8.93
2018-06-20T15:43:49.079Z,10.13
2018-06-20T15:46:17.760Z,9.57
2018-06-20T15:48:46.743Z,10.30
2018-06-20T15:51:15.512Z,10.33
2018-06-20T15:53:44.171Z,9.10
2018-06-20T15:56:12.907Z,9.77
2018-06-20T15:58:41.560Z,10.70
2018-06-20T16:01:10.265Z,10.60
2018-06-20T16:03:38.934Z,12.57
2018-06-20T16:06:07.632Z,11.70
2018-06-20T16:08:40.519Z,9.93
2018-06-20T16:11:09.244Z,10.60
2018-06-20T16:13:37.884Z,9.47
2018-06-20T16:16:06.658Z,9.30
2018-06-20T16:18:35.979Z,10.50
2018-06-20T16:21:10.256Z,9.47
2018-06-20T16:23:44.326Z,10.53
2018-06-20T16:26:18.415Z,10.70
2018-06-20T16:28:52.524Z,10.93
2018-06-20T16:31:21.254Z,10.37
2018-06-20T16:33:50.068Z,10.40
2018-06-20T16:36:18.751Z,10.77
2018-06-20T16:38:47.498Z,10.50
2018-06-20T16:41:16.275Z,11.17
2018-06-20T16:43:45.089Z,12.40
2018-06-20T16:46:13.703Z,11.07
2018-06-20T16:48:42.418Z,12.30
2018-06-20T16:51:11.080Z,12.07
2018-06-20T16:53:39.766Z,12.07
2018-06-20T16:56:08.500Z,11.73
2018-06-20T16:58:37.287Z,12.53
2018-06-20T17:01:11.995Z,12.97
2018-06-20T17:03:40.710Z,14.10
2018-06-20T17:06:09.465Z,12.10
2018-06-20T17:08:38.174Z,13.63
2018-06-20T17:11:06.937Z,12.90
2018-06-20T17:13:40.937Z,12.20
2018-06-20T17:16:14.966Z,12.03
2018-06-20T17:18:48.986Z,11.93
2018-06-20T17:21:23.003Z,12.80
2018-06-20T17:23:57.050Z,12.57
2018-06-20T17:26:28.393Z,13.10
2018-06-20T17:28:57.148Z,11.37
2018-06-20T17:31:26.855Z,13.27
2018-06-20T17:33:55.634Z,14.23
2018-06-20T17:36:24.340Z,12.03
2018-06-20T17:38:53.105Z,12.27
2018-06-20T17:41:21.933Z,11.73
2018-06-20T17:43:50.691Z,11.83
2018-06-20T17:46:19.442Z,12.17
2018-06-20T17:48:48.193Z,11.80
2018-06-20T17:51:17.133Z,13.07
2018-06-20T17:53:46.228Z,12.80
2018-06-20T17:56:15.492Z,12.30
2018-06-20T17:58:44.726Z,12.30
2018-06-20T18:01:13.585Z,11.33
2018-06-20T18:03:42.821Z,12.73
2018-06-20T18:06:17.018Z,14.30
2018-06-20T18:08:51.007Z,12.57
2018-06-20T18:12:25.497Z,13.93
2018-06-20T18:14:59.752Z,12.33
2018-06-20T18:17:28.467Z,12.50
2018-06-20T18:19:57.312Z,13.17
2018-06-20T18:22:26.034Z,13.40
2018-06-20T18:24:54.875Z,13.20
2018-06-20T18:27:23.640Z,11.90
2018-06-20T18:29:52.411Z,14.30
2018-06-20T18:32:21.194Z,13.50
2018-06-20T18:34:50.042Z,14.30
2018-06-20T18:37:18.856Z,12.63
2018-06-20T18:39:52.971Z,14.23
2018-06-20T18:42:21.835Z,12.63
2018-06-20T18:44:50.902Z,13.70
2018-06-20T18:47:25.463Z,13.97
2018-06-20T18:49:54.325Z,13.53
2018-06-20T18:52:23.087Z,14.13
2018-06-20T18:54:51.755Z,13.57
2018-06-20T18:57:25.897Z,27.37
2018-06-20T19:00:00.166Z,23.27
2018-06-20T19:02:34.237Z,17.43
2018-06-20T19:05:08.307Z,16.20
2018-06-20T19:07:42.319Z,16.20
2018-06-20T19:10:11.194Z,14.53
2018-06-20T19:12:41.124Z,17.13
2018-06-20T19:15:09.775Z,16.90
2018-06-20T19:17:38.641Z,15.57
2018-06-20T19:20:07.391Z,17.60
2018-06-20T19:22:36.113Z,16.50
2018-06-20T19:25:05.387Z,21.13
2018-06-20T19:27:34.163Z,18.60
2018-06-20T19:30:02.932Z,16.07
2018-06-20T19:32:31.732Z,15.60
2018-06-20T19:35:00.441Z,18.03
2018-06-20T19:37:29.143Z,18.67
2018-06-20T19:39:58.049Z,16.10
2018-06-20T19:42:26.727Z,30.43
2018-06-20T19:44:55.931Z,17.23
2018-06-20T19:47:24.323Z,18.47
2018-06-20T19:49:53.039Z,19.63
2018-06-20T19:52:21.805Z,16.90
2018-06-20T19:54:50.436Z,17.80
2018-06-20T19:57:19.944Z,18.40
2018-06-20T19:59:48.621Z,20.33
2018-06-20T20:02:17.365Z,19.47
2018-06-20T20:04:46.176Z,18.17
2018-06-20T20:07:14.983Z,18.80
2018-06-20T20:09:43.709Z,24.30
2018-06-20T20:12:12.488Z,21.10
2018-06-20T20:14:41.195Z,20.70
2018-06-20T20:17:09.852Z,19.60
2018-06-20T20:19:38.543Z,18.77
2018-06-20T20:22:07.548Z,19.23
2018-06-20T20:24:36.291Z,18.43
2018-06-20T20:27:05.024Z,19.83
2018-06-20T20:29:33.734Z,19.93
2018-06-20T20:32:02.423Z,19.87
2018-06-20T20:34:31.069Z,18.90
2018-06-20T20:36:59.763Z,17.50
2018-06-20T20:39:28.468Z,19.40
2018-06-20T20:41:57.314Z,18.73
2018-06-20T20:44:26.001Z,19.47
2018-06-20T20:46:54.691Z,18.53
2018-06-20T20:49:24.054Z,17.37
2018-06-20T20:51:52.791Z,17.00
2018-06-20T20:54:21.455Z,16.93
2018-06-20T20:56:50.866Z,19.03
2018-06-20T20:59:19.601Z,18.60
2018-06-20T21:01:48.331Z,18.93
2018-06-20T21:04:17.145Z,19.30
2018-06-20T21:06:45.835Z,17.63
2018-06-20T21:09:16.840Z,19.53
2018-06-20T21:11:45.539Z,18.67
2018-06-20T21:14:14.339Z,17.10
2018-06-20T21:16:43.291Z,20.77
2018-06-20T21:19:12.026Z,17.80
2018-06-20T21:21:41.873Z,18.87
2018-06-20T21:24:11.152Z,19.83
2018-06-20T21:26:39.995Z,19.40
2018-06-20T21:29:08.994Z,20.67
2018-06-20T21:31:39.199Z,26.43
2018-06-20T21:34:07.862Z,23.60
2018-06-20T21:36:36.572Z,25.53
2018-06-20T21:39:07.762Z,24.20
2018-06-20T21:41:36.456Z,24.03
2018-06-20T21:44:05.395Z,22.50
2018-06-20T21:46:34.219Z,23.17
2018-06-20T21:49:03.025Z,20.47
2018-06-20T21:51:33.500Z,20.00
2018-06-20T21:54:02.185Z,18.63
2018-06-20T21:56:31.868Z,18.10
2018-06-20T21:59:00.541Z,20.77
2018-06-20T22:01:29.227Z,19.97
2018-06-20T22:03:58.641Z,18.77
2018-06-20T22:06:27.358Z,18.40
2018-06-20T22:08:56.715Z,18.00
2018-06-20T22:11:25.601Z,20.37
2018-06-20T22:13:54.363Z,19.27
2018-06-20T22:16:24.639Z,18.27
2018-06-20T22:18:53.451Z,19.00
2018-06-20T22:21:22.136Z,17.50
2018-06-20T22:23:53.209Z,17.63
2018-06-20T22:26:22.663Z,19.30
2018-06-20T22:28:51.519Z,21.27
2018-06-20T22:31:20.798Z,23.10
2018-06-20T22:33:49.668Z,23.50
2018-06-20T22:36:18.452Z,29.70
2018-06-20T22:38:48.170Z,27.53
2018-06-20T22:41:16.926Z,31.03
2018-06-20T22:43:45.602Z,22.90
2018-06-20T22:46:14.418Z,27.63
2018-06-20T22:48:43.106Z,23.13
2018-06-20T22:51:11.781Z,25.03
2018-06-20T22:53:40.481Z,22.47
2018-06-20T22:56:10.781Z,20.93
2018-06-20T22:58:39.489Z,21.53
2018-06-20T23:01:08.151Z,21.33
2018-06-20T23:03:36.803Z,20.80
2018-06-20T23:06:05.750Z,22.70
2018-06-20T23:08:34.446Z,22.77
2018-06-20T23:11:03.673Z,21.00
2018-06-20T23:13:33.046Z,22.50
2018-06-20T23:16:01.784Z,22.37
2018-06-20T23:18:30.479Z,22.97
2018-06-20T23:20:59.203Z,21.97
2018-06-20T23:23:27.883Z,24.57
2018-06-20T23:25:56.526Z,22.27
2018-06-20T23:28:25.262Z,24.40
2018-06-20T23:30:53.925Z,23.00
2018-06-20T23:33:22.603Z,23.93
2018-06-20T23:35:51.300Z,26.70
2018-06-20T23:38:20.020Z,26.13
2018-06-20T23:40:48.708Z,25.60
2018-06-20T23:43:18.358Z,25.90
2018-06-20T23:45:48.486Z,25.00
2018-06-20T23:48:17.409Z,26.40
2018-06-20T23:50:46.133Z,24.70
2018-06-20T23:53:14.845Z,24.63
2018-06-20T23:55:43.524Z,26.70
2018-06-20T23:58:12.230Z,27.43
